createdAt,value
2022-09-30T00:01:15.452Z,9.65
2022-09-30T00:03:43.544Z,9.65
2022-09-30T00:06:11.176Z,9.66
2022-09-30T00:08:39.028Z,9.65
2022-09-30T00:11:13.624Z,9.65
2022-09-30T00:13:40.895Z,9.68
2022-09-30T00:16:07.798Z,9.67
2022-09-30T00:18:34.635Z,9.67
2022-09-30T00:21:01.991Z,9.68
2022-09-30T00:23:29.432Z,9.66
2022-09-30T00:26:01.973Z,9.61
2022-09-30T00:28:29.329Z,9.66
2022-09-30T00:31:05.301Z,9.66
2022-09-30T00:33:32.373Z,9.60
2022-09-30T00:35:59.337Z,9.59
2022-09-30T00:38:26.492Z,9.58
2022-09-30T00:40:53.392Z,9.60
2022-09-30T00:43:41.377Z,9.61
2022-09-30T00:46:33.870Z,9.58
2022-09-30T00:49:06.106Z,9.56
2022-09-30T00:51:41.612Z,9.49
2022-09-30T00:54:17.450Z,9.48
2022-09-30T00:56:50.887Z,9.44
2022-09-30T00:59:41.699Z,9.48
2022-09-30T01:02:10.305Z,9.49
2022-09-30T01:04:38.431Z,9.47
2022-09-30T01:07:08.428Z,9.49
2022-09-30T01:09:37.334Z,9.48
2022-09-30T01:12:16.561Z,9.44
2022-09-30T01:14:47.460Z,9.48
2022-09-30T01:17:35.409Z,9.49
2022-09-30T01:20:17.512Z,9.47
2022-09-30T01:23:22.588Z,9.51
2022-09-30T01:26:18.626Z,9.54
2022-09-30T01:29:19.050Z,9.53
2022-09-30T01:32:04.037Z,9.56
2022-09-30T01:34:39.643Z,9.56
2022-09-30T01:37:30.301Z,9.54
2022-09-30T01:40:23.461Z,9.54
2022-09-30T01:43:17.280Z,9.57
2022-09-30T01:45:46.799Z,9.56
2022-09-30T01:48:35.738Z,9.57
2022-09-30T01:51:09.820Z,9.58
2022-09-30T01:53:48.724Z,9.54
2022-09-30T01:56:22.188Z,9.57
2022-09-30T01:59:00.465Z,9.57
2022-09-30T02:01:37.010Z,9.60
2022-09-30T02:04:20.925Z,9.58
2022-09-30T02:06:53.973Z,9.62
2022-09-30T02:09:28.187Z,9.62
2022-09-30T02:11:59.988Z,9.60
2022-09-30T02:14:37.088Z,9.58
2022-09-30T02:17:15.592Z,9.62
2022-09-30T02:19:47.705Z,9.61
2022-09-30T02:22:28.951Z,9.60
2022-09-30T02:25:01.635Z,9.56
2022-09-30T02:27:40.512Z,9.58
2022-09-30T02:30:09.433Z,9.58
2022-09-30T02:32:45.566Z,9.54
2022-09-30T02:35:21.089Z,9.53
2022-09-30T02:37:53.544Z,9.52
2022-09-30T02:40:39.415Z,9.56
2022-09-30T02:43:07.145Z,9.52
2022-09-30T02:45:46.345Z,9.58
2022-09-30T02:48:15.902Z,9.61
2022-09-30T02:51:07.980Z,9.60
2022-09-30T02:53:46.220Z,9.60
2022-09-30T02:56:18.757Z,9.66
2022-09-30T02:58:47.036Z,9.69
2022-09-30T03:01:16.204Z,9.69
2022-09-30T03:03:55.189Z,9.73
2022-09-30T03:06:21.992Z,9.74
2022-09-30T03:08:48.989Z,9.75
2022-09-30T03:11:18.430Z,9.76
2022-09-30T03:14:12.995Z,9.72
2022-09-30T03:16:48.521Z,9.70
2022-09-30T03:19:44.447Z,9.67
2022-09-30T03:22:24.718Z,9.65
2022-09-30T03:25:06.708Z,9.66
2022-09-30T03:27:43.304Z,9.66
2022-09-30T03:30:17.884Z,9.57
2022-09-30T03:33:10.272Z,9.56
2022-09-30T03:35:48.981Z,9.55
2022-09-30T03:38:27.539Z,9.57
2022-09-30T03:41:24.109Z,9.63
2022-09-30T03:44:11.080Z,9.61
2022-09-30T03:46:52.249Z,9.57
2022-09-30T03:49:25.022Z,9.56
2022-09-30T03:51:52.734Z,9.60
2022-09-30T03:54:19.419Z,9.59
2022-09-30T03:56:46.220Z,9.57
2022-09-30T03:59:23.265Z,9.58
2022-09-30T04:01:50.723Z,9.54
2022-09-30T04:04:18.010Z,9.57
2022-09-30T04:06:44.661Z,9.60
2022-09-30T04:09:11.546Z,9.56
2022-09-30T04:11:38.316Z,9.61
2022-09-30T04:14:05.991Z,9.58
2022-09-30T04:16:33.249Z,9.60
2022-09-30T04:18:59.826Z,9.60
2022-09-30T04:21:28.835Z,9.58
2022-09-30T04:23:56.632Z,9.59
2022-09-30T04:26:23.535Z,9.61
2022-09-30T04:28:50.524Z,9.60
2022-09-30T04:31:19.591Z,9.61
2022-09-30T04:33:46.453Z,9.62
2022-09-30T04:36:13.208Z,9.61
2022-09-30T04:38:39.894Z,9.63
2022-09-30T04:41:07.442Z,9.66
2022-09-30T04:43:34.506Z,9.67
2022-09-30T04:46:01.501Z,9.65
2022-09-30T04:48:31.368Z,9.67
2022-09-30T04:51:00.419Z,9.66
2022-09-30T04:53:27.426Z,9.67
2022-09-30T04:56:00.009Z,9.67
2022-09-30T04:58:27.943Z,9.66
2022-09-30T05:01:10.296Z,9.66
2022-09-30T05:03:37.703Z,9.64
2022-09-30T05:06:05.831Z,9.64
2022-09-30T05:08:33.846Z,9.69
2022-09-30T05:11:08.460Z,9.71
2022-09-30T05:13:38.004Z,9.71
2022-09-30T05:16:05.490Z,9.78
2022-09-30T05:18:34.966Z,9.81
2022-09-30T05:21:02.698Z,9.83
2022-09-30T05:23:30.997Z,9.82
2022-09-30T05:25:57.941Z,9.75
2022-09-30T05:28:26.486Z,9.90
2022-09-30T05:30:58.610Z,9.91
2022-09-30T05:33:26.009Z,9.94
2022-09-30T05:35:52.726Z,9.81
2022-09-30T05:38:19.492Z,9.96
2022-09-30T05:40:46.185Z,10.03
2022-09-30T05:43:13.050Z,9.96
2022-09-30T05:45:40.072Z,9.90
2022-09-30T05:48:07.797Z,9.98
2022-09-30T05:50:35.116Z,10.03
2022-09-30T05:53:01.961Z,10.03
2022-09-30T05:55:28.712Z,10.02
2022-09-30T05:57:55.575Z,9.98
2022-09-30T06:00:22.378Z,10.02
2022-09-30T06:02:52.071Z,10.09
2022-09-30T06:05:19.774Z,10.08
2022-09-30T06:07:47.119Z,10.16
2022-09-30T06:10:13.909Z,10.19
2022-09-30T06:12:40.608Z,10.21
2022-09-30T06:15:07.926Z,10.28
2022-09-30T06:17:34.813Z,10.28
2022-09-30T06:20:04.569Z,10.31
2022-09-30T06:22:36.001Z,10.29
2022-09-30T06:25:05.518Z,10.27
2022-09-30T06:27:34.419Z,10.31
2022-09-30T06:30:01.842Z,10.26
2022-09-30T06:32:30.498Z,10.26
2022-09-30T06:34:57.411Z,10.27
2022-09-30T06:37:24.960Z,10.32
2022-09-30T06:39:52.237Z,10.31
2022-09-30T06:42:19.089Z,10.34
2022-09-30T06:44:52.732Z,10.40
2022-09-30T06:47:25.303Z,10.41
2022-09-30T06:49:58.987Z,10.32
2022-09-30T06:52:27.069Z,10.33
2022-09-30T06:54:56.839Z,10.40
2022-09-30T06:57:26.749Z,10.50
2022-09-30T06:59:54.467Z,10.59
2022-09-30T07:02:22.229Z,10.78
2022-09-30T07:04:49.123Z,11.02
2022-09-30T07:07:16.018Z,11.28
2022-09-30T07:09:43.441Z,11.70
2022-09-30T07:12:10.457Z,12.23
2022-09-30T07:14:37.292Z,12.45
2022-09-30T07:17:05.580Z,12.46
2022-09-30T07:19:34.592Z,12.37
2022-09-30T07:22:22.274Z,12.36
2022-09-30T07:24:49.097Z,12.24
2022-09-30T07:27:16.075Z,12.19
2022-09-30T07:30:07.656Z,12.40
2022-09-30T07:32:31.076Z,12.98
2022-09-30T07:34:57.948Z,13.60
2022-09-30T07:37:26.405Z,13.64
2022-09-30T07:39:53.797Z,13.66
2022-09-30T07:42:22.942Z,13.15
2022-09-30T07:44:52.227Z,13.36
2022-09-30T07:47:20.482Z,13.20
2022-09-30T07:49:47.786Z,13.05
2022-09-30T07:52:15.161Z,13.43
2022-09-30T07:54:46.669Z,13.63
2022-09-30T07:57:16.514Z,13.87
2022-09-30T07:59:43.946Z,13.91
2022-09-30T08:02:19.049Z,14.23
2022-09-30T08:04:46.561Z,14.49
2022-09-30T08:07:15.610Z,14.52
2022-09-30T08:09:42.823Z,14.57
2022-09-30T08:12:09.831Z,14.79
2022-09-30T08:14:36.564Z,14.75
2022-09-30T08:17:03.263Z,14.66
2022-09-30T08:19:31.259Z,14.89
2022-09-30T08:21:58.374Z,15.34
2022-09-30T08:24:26.500Z,15.52
2022-09-30T08:26:54.096Z,15.91
2022-09-30T08:29:42.530Z,15.45
2022-09-30T08:32:08.096Z,15.60
2022-09-30T08:34:35.824Z,15.80
2022-09-30T08:37:07.760Z,15.49
2022-09-30T08:39:35.376Z,15.63
2022-09-30T08:42:37.876Z,16.01
2022-09-30T08:45:40.445Z,15.95
2022-09-30T08:48:36.408Z,16.19
2022-09-30T08:51:25.049Z,16.55
2022-09-30T08:53:52.942Z,16.86
2022-09-30T08:56:24.535Z,16.94
2022-09-30T08:58:55.745Z,16.81
2022-09-30T09:01:35.944Z,16.88
2022-09-30T09:04:05.456Z,16.42
2022-09-30T09:06:59.216Z,16.72
2022-09-30T09:09:35.193Z,16.82
2022-09-30T09:12:39.755Z,17.18
2022-09-30T09:15:34.246Z,17.19
2022-09-30T09:18:24.394Z,17.43
2022-09-30T09:21:17.310Z,17.91
2022-09-30T09:23:44.566Z,18.11
2022-09-30T09:26:15.539Z,18.10
2022-09-30T09:29:12.129Z,17.81
2022-09-30T09:31:38.936Z,18.22
2022-09-30T09:34:13.641Z,18.62
2022-09-30T09:37:07.989Z,19.05
2022-09-30T09:39:46.828Z,19.51
2022-09-30T09:42:27.001Z,19.30
2022-09-30T09:45:22.767Z,19.31
2022-09-30T09:47:53.337Z,17.94
2022-09-30T09:50:27.855Z,17.85
2022-09-30T09:53:16.433Z,17.93
2022-09-30T09:55:44.546Z,18.51
2022-09-30T09:58:14.532Z,18.54
2022-09-30T10:00:47.771Z,18.83
2022-09-30T10:03:28.534Z,19.51
2022-09-30T10:06:03.025Z,19.91
2022-09-30T10:08:52.152Z,19.93
2022-09-30T10:11:22.369Z,20.39
2022-09-30T10:13:51.356Z,20.88
2022-09-30T10:16:38.025Z,20.66
2022-09-30T10:19:20.029Z,20.88
2022-09-30T10:21:46.864Z,21.37
2022-09-30T10:24:39.824Z,21.34
2022-09-30T10:27:26.421Z,20.87
2022-09-30T10:29:53.136Z,20.12
2022-09-30T10:32:20.842Z,19.76
2022-09-30T10:34:56.710Z,19.39
2022-09-30T10:37:24.884Z,19.10
2022-09-30T10:40:04.536Z,18.73
2022-09-30T10:42:34.718Z,18.66
2022-09-30T10:45:16.867Z,18.47
2022-09-30T10:47:46.344Z,18.39
2022-09-30T10:50:17.271Z,18.33
2022-09-30T10:53:00.571Z,18.24
2022-09-30T10:55:31.020Z,18.38
2022-09-30T10:58:20.219Z,18.53
2022-09-30T11:00:53.744Z,18.61
2022-09-30T11:03:27.974Z,18.77
2022-09-30T11:05:57.131Z,18.56
2022-09-30T11:08:36.523Z,18.42
2022-09-30T11:11:21.082Z,18.45
2022-09-30T11:13:57.407Z,18.56
2022-09-30T11:16:32.390Z,18.67
2022-09-30T11:19:17.316Z,18.87
2022-09-30T11:21:54.453Z,19.39
2022-09-30T11:24:29.741Z,19.73
2022-09-30T11:27:02.568Z,19.86
2022-09-30T11:30:10.879Z,19.66
2022-09-30T11:32:49.412Z,19.75
2022-09-30T11:35:34.684Z,20.02
2022-09-30T11:38:07.242Z,20.39
2022-09-30T11:41:00.269Z,20.91
2022-09-30T11:43:56.222Z,20.93
2022-09-30T11:46:50.090Z,20.91
2022-09-30T11:49:42.425Z,21.00
2022-09-30T11:52:34.401Z,20.95
2022-09-30T11:55:23.651Z,20.70
2022-09-30T11:58:28.656Z,20.00
2022-09-30T12:01:02.176Z,19.39
2022-09-30T12:03:36.076Z,19.14
2022-09-30T12:06:10.562Z,18.87
2022-09-30T12:08:49.714Z,18.66
2022-09-30T12:11:22.386Z,18.63
2022-09-30T12:13:57.338Z,18.49
2022-09-30T12:16:27.458Z,18.64
2022-09-30T12:19:15.485Z,18.96
2022-09-30T12:22:16.012Z,19.37
2022-09-30T12:24:47.376Z,20.29
2022-09-30T12:27:24.664Z,20.50
2022-09-30T12:30:17.613Z,20.61
2022-09-30T12:33:02.864Z,20.68
2022-09-30T12:36:06.506Z,21.02
2022-09-30T12:39:06.950Z,21.27
2022-09-30T12:42:08.531Z,21.54
2022-09-30T12:45:15.017Z,21.57
2022-09-30T12:47:53.428Z,21.80
2022-09-30T12:50:28.130Z,21.68
2022-09-30T12:52:58.359Z,21.31
2022-09-30T12:55:38.713Z,21.40
2022-09-30T12:58:07.172Z,21.54
2022-09-30T13:00:36.367Z,21.74
2022-09-30T13:03:17.462Z,21.57
2022-09-30T13:05:53.731Z,21.03
2022-09-30T13:08:24.870Z,20.74
2022-09-30T13:11:00.465Z,20.46
2022-09-30T13:13:32.877Z,20.28
2022-09-30T13:16:09.035Z,20.05
2022-09-30T13:18:36.292Z,19.70
2022-09-30T13:21:07.000Z,19.45
2022-09-30T13:23:52.690Z,19.08
2022-09-30T13:26:22.637Z,19.04
2022-09-30T13:28:51.400Z,18.99
2022-09-30T13:31:20.679Z,18.91
2022-09-30T13:34:13.555Z,18.78
2022-09-30T13:36:53.413Z,18.89
2022-09-30T13:39:33.088Z,19.02
2022-09-30T13:42:20.351Z,19.05
2022-09-30T13:45:16.289Z,19.06
2022-09-30T13:48:12.569Z,19.06
2022-09-30T13:51:00.492Z,18.83
2022-09-30T13:53:50.831Z,18.64
2022-09-30T13:56:28.741Z,18.38
2022-09-30T13:59:21.050Z,18.25
2022-09-30T14:02:17.041Z,18.07
2022-09-30T14:04:48.497Z,17.91
2022-09-30T14:07:41.695Z,17.78
2022-09-30T14:10:18.201Z,17.70
2022-09-30T14:13:18.816Z,17.61
2022-09-30T14:16:19.388Z,17.57
2022-09-30T14:18:46.423Z,17.49
2022-09-30T14:21:34.908Z,17.41
2022-09-30T14:24:17.454Z,17.24
2022-09-30T14:27:02.560Z,17.12
2022-09-30T14:29:45.075Z,17.06
2022-09-30T14:32:14.336Z,17.01
2022-09-30T14:34:42.124Z,16.95
2022-09-30T14:37:18.553Z,16.93
2022-09-30T14:39:48.104Z,16.84
2022-09-30T14:42:31.494Z,16.78
2022-09-30T14:45:06.014Z,16.73
2022-09-30T14:47:37.603Z,16.68
2022-09-30T14:50:16.314Z,16.63
2022-09-30T14:52:45.340Z,16.57
2022-09-30T14:55:31.088Z,16.44
2022-09-30T14:58:23.009Z,16.45
2022-09-30T15:01:19.976Z,16.38
2022-09-30T15:03:52.683Z,16.37
2022-09-30T15:06:24.923Z,16.30
2022-09-30T15:08:59.865Z,16.28
2022-09-30T15:11:27.190Z,16.23
2022-09-30T15:14:17.772Z,16.16
2022-09-30T15:16:52.893Z,16.14
2022-09-30T15:19:42.741Z,16.06
2022-09-30T15:22:12.441Z,15.99
2022-09-30T15:24:40.484Z,15.98
2022-09-30T15:27:15.434Z,15.90
2022-09-30T15:29:55.753Z,15.86
2022-09-30T15:32:25.504Z,15.82
2022-09-30T15:34:52.375Z,15.75
2022-09-30T15:37:25.032Z,15.72
2022-09-30T15:40:11.040Z,15.67
2022-09-30T15:42:49.375Z,15.64
2022-09-30T15:45:35.986Z,15.58
2022-09-30T15:48:22.627Z,15.50
2022-09-30T15:50:53.991Z,15.45
2022-09-30T15:53:25.675Z,15.40
2022-09-30T15:55:55.706Z,15.35
2022-09-30T15:58:38.023Z,15.27
2022-09-30T16:01:26.728Z,15.20
2022-09-30T16:03:59.098Z,15.04
2022-09-30T16:06:32.559Z,14.97
2022-09-30T16:09:20.567Z,14.97
2022-09-30T16:11:59.236Z,14.90
2022-09-30T16:14:31.999Z,14.84
2022-09-30T16:17:02.379Z,14.81
2022-09-30T16:19:30.825Z,14.75
2022-09-30T16:21:58.377Z,14.72
2022-09-30T16:24:25.436Z,14.67
2022-09-30T16:26:53.057Z,14.63
2022-09-30T16:29:19.843Z,14.58
2022-09-30T16:31:49.581Z,14.55
2022-09-30T16:34:24.109Z,14.45
2022-09-30T16:36:53.082Z,14.41
2022-09-30T16:39:20.275Z,14.32
2022-09-30T16:41:47.665Z,14.33
2022-09-30T16:44:14.338Z,14.27
2022-09-30T16:46:41.099Z,14.28
2022-09-30T16:49:18.233Z,14.26
2022-09-30T16:51:45.334Z,14.11
2022-09-30T16:54:12.277Z,14.21
2022-09-30T16:56:39.175Z,14.18
2022-09-30T16:59:17.923Z,14.11
2022-09-30T17:01:45.002Z,14.07
2022-09-30T17:04:15.233Z,14.03
2022-09-30T17:06:44.162Z,13.99
2022-09-30T17:09:11.224Z,13.93
2022-09-30T17:11:38.357Z,13.85
2022-09-30T17:14:06.552Z,13.86
2022-09-30T17:16:34.426Z,13.83
2022-09-30T17:19:01.791Z,13.86
2022-09-30T17:21:28.671Z,13.89
2022-09-30T17:23:55.695Z,13.87
2022-09-30T17:26:22.296Z,13.88
2022-09-30T17:28:49.015Z,13.87
2022-09-30T17:31:16.021Z,13.82
2022-09-30T17:33:42.950Z,13.86
2022-09-30T17:36:11.818Z,13.85
2022-09-30T17:38:39.720Z,13.85
2022-09-30T17:41:26.305Z,13.86
2022-09-30T17:43:53.031Z,13.72
2022-09-30T17:46:23.187Z,13.83
2022-09-30T17:48:51.219Z,13.81
2022-09-30T17:51:18.165Z,13.74
2022-09-30T17:53:45.067Z,13.72
2022-09-30T17:56:21.083Z,13.71
2022-09-30T17:58:51.057Z,13.68
2022-09-30T18:01:20.554Z,13.68
2022-09-30T18:03:47.787Z,13.63
2022-09-30T18:06:14.577Z,13.63
2022-09-30T18:08:41.647Z,13.59
2022-09-30T18:11:09.149Z,13.58
2022-09-30T18:13:35.973Z,13.55
2022-09-30T18:16:07.293Z,13.52
2022-09-30T18:18:35.680Z,13.49
2022-09-30T18:21:04.706Z,13.46
2022-09-30T18:23:32.134Z,13.44
2022-09-30T18:26:00.414Z,13.41
2022-09-30T18:28:29.324Z,13.37
2022-09-30T18:30:58.672Z,13.34
2022-09-30T18:33:26.448Z,13.35
2022-09-30T18:35:53.145Z,13.33
2022-09-30T18:38:20.105Z,13.25
2022-09-30T18:40:47.654Z,13.28
2022-09-30T18:43:15.504Z,13.26
2022-09-30T18:45:50.102Z,13.28
2022-09-30T18:48:20.272Z,13.25
2022-09-30T18:50:51.426Z,13.22
2022-09-30T18:53:22.871Z,13.20
2022-09-30T18:55:49.800Z,13.21
2022-09-30T18:58:17.346Z,13.17
2022-09-30T19:00:44.348Z,13.17
2022-09-30T19:03:13.807Z,13.16
2022-09-30T19:05:41.910Z,13.14
2022-09-30T19:08:09.431Z,13.15
2022-09-30T19:10:41.570Z,13.15
2022-09-30T19:13:12.227Z,13.07
2022-09-30T19:15:39.279Z,13.14
2022-09-30T19:18:10.514Z,13.15
2022-09-30T19:20:39.655Z,13.14
2022-09-30T19:23:11.110Z,13.09
2022-09-30T19:25:42.131Z,13.06
2022-09-30T19:28:10.657Z,13.13
2022-09-30T19:30:41.964Z,13.13
2022-09-30T19:33:10.408Z,13.11
2022-09-30T19:35:41.000Z,13.07
2022-09-30T19:38:09.905Z,13.04
2022-09-30T19:40:37.442Z,13.09
2022-09-30T19:43:08.074Z,13.09
2022-09-30T19:45:35.761Z,13.07
2022-09-30T19:48:06.740Z,13.11
2022-09-30T19:50:37.313Z,13.06
2022-09-30T19:53:08.146Z,13.07
2022-09-30T19:55:46.579Z,13.13
2022-09-30T19:58:16.338Z,13.13
2022-09-30T20:00:43.109Z,13.11
2022-09-30T20:03:11.493Z,13.12
2022-09-30T20:05:38.188Z,13.08
2022-09-30T20:08:04.877Z,13.07
2022-09-30T20:10:32.259Z,13.08
2022-09-30T20:13:02.246Z,13.07
2022-09-30T20:15:47.869Z,13.05
2022-09-30T20:18:24.248Z,13.05
2022-09-30T20:20:51.052Z,13.06
2022-09-30T20:23:28.299Z,13.06
2022-09-30T20:26:01.115Z,13.06
2022-09-30T20:28:28.862Z,13.04
2022-09-30T20:30:55.702Z,13.01
2022-09-30T20:33:25.416Z,12.95
2022-09-30T20:35:52.169Z,13.00
2022-09-30T20:38:24.817Z,12.99
2022-09-30T20:41:02.148Z,12.98
2022-09-30T20:43:30.873Z,12.98
2022-09-30T20:46:01.842Z,12.99
2022-09-30T20:48:36.770Z,12.99
2022-09-30T20:51:09.686Z,12.99
2022-09-30T20:53:39.810Z,12.99
2022-09-30T20:56:08.410Z,13.00
2022-09-30T20:58:36.135Z,13.00
2022-09-30T21:01:11.344Z,13.01
2022-09-30T21:03:39.495Z,13.02
2022-09-30T21:06:08.445Z,13.01
2022-09-30T21:08:43.106Z,13.02
2022-09-30T21:11:10.980Z,13.01
2022-09-30T21:13:43.020Z,12.99
2022-09-30T21:16:12.539Z,13.04
2022-09-30T21:18:40.714Z,13.00
2022-09-30T21:21:07.677Z,13.00
2022-09-30T21:23:35.678Z,13.02
2022-09-30T21:26:05.039Z,13.03
2022-09-30T21:28:32.275Z,13.01
2022-09-30T21:31:04.924Z,12.99
2022-09-30T21:33:31.760Z,12.99
2022-09-30T21:36:00.203Z,12.97
2022-09-30T21:38:27.128Z,12.87
2022-09-30T21:40:58.216Z,12.95
2022-09-30T21:43:25.964Z,12.95
2022-09-30T21:46:01.138Z,12.96
2022-09-30T21:48:29.933Z,12.95
2022-09-30T21:50:56.992Z,12.90
2022-09-30T21:53:27.251Z,12.95
2022-09-30T21:55:57.760Z,12.81
2022-09-30T21:58:26.138Z,12.94
2022-09-30T22:00:55.850Z,12.95
2022-09-30T22:03:23.595Z,12.91
2022-09-30T22:05:52.266Z,12.96
2022-09-30T22:08:19.616Z,12.95
2022-09-30T22:10:46.824Z,12.97
2022-09-30T22:13:15.540Z,12.96
2022-09-30T22:15:46.592Z,12.97
2022-09-30T22:18:18.147Z,12.98
2022-09-30T22:20:46.568Z,12.98
2022-09-30T22:23:14.937Z,12.97
2022-09-30T22:25:41.877Z,12.97
2022-09-30T22:28:08.609Z,12.98
2022-09-30T22:30:35.444Z,12.99
2022-09-30T22:33:21.033Z,12.94
2022-09-30T22:36:06.217Z,12.99
2022-09-30T22:38:32.904Z,13.00
2022-09-30T22:40:59.715Z,12.96
2022-09-30T22:43:27.385Z,13.00
2022-09-30T22:46:08.231Z,12.99
2022-09-30T22:48:35.244Z,12.99
2022-09-30T22:51:02.114Z,12.98
2022-09-30T22:53:29.365Z,12.92
2022-09-30T22:55:56.076Z,12.96
2022-09-30T22:58:26.478Z,12.96
2022-09-30T23:00:54.198Z,12.96
2022-09-30T23:03:21.516Z,12.96
2022-09-30T23:05:48.733Z,12.94
2022-09-30T23:08:15.283Z,12.93
2022-09-30T23:10:52.137Z,12.92
2022-09-30T23:13:22.104Z,12.88
2022-09-30T23:15:48.797Z,12.88
2022-09-30T23:18:17.258Z,12.87
2022-09-30T23:20:54.291Z,12.85
2022-09-30T23:23:20.980Z,12.87
2022-09-30T23:25:47.667Z,12.86
2022-09-30T23:28:14.403Z,12.78
2022-09-30T23:30:41.247Z,12.78
2022-09-30T23:33:09.679Z,12.80
2022-09-30T23:35:36.376Z,12.78
2022-09-30T23:38:03.065Z,12.72
2022-09-30T23:40:31.492Z,12.75
2022-09-30T23:42:58.256Z,12.78
2022-09-30T23:45:24.976Z,12.80
2022-09-30T23:47:51.721Z,12.79
2022-09-30T23:50:18.410Z,12.80
2022-09-30T23:52:45.190Z,12.81
2022-09-30T23:55:11.847Z,12.79
2022-09-30T23:57:38.629Z,12.80
